Time;durP1;ratioP1;P1;durP2;ratioP2;P2;SDS_P1;SDS_P2;PMS_P1;PMS_P2;Temp;Humidity;BMP_temperature;BMP_pressure;BME280_temperature;BME280_humidity;BME280_pressure;Samples;Min_cycle;Max_cycle;Signal;HPM_P1;HPM_P2
2022/02/10 00:21:52;;;;;;;;;;;;;;;16.57;55.89;101344.94;4922670;28;98030;-56
2022/02/10 00:35:13;;;;;;;;;;;;;;;16.57;55.73;101342.22;4950465;28;97993;-62
2022/02/10 00:37:51;;;;;;;;;;;;;;;16.57;55.82;101342.22;4923389;28;98611;-63
2022/02/10 00:40:20;;;;;;;;;;;;;;;16.57;55.83;101339.50;4933654;28;98801;-56
2022/02/10 00:42:47;;;;;;;;;;;;;;;16.57;55.76;101342.22;4942688;28;98527;-57
2022/02/10 00:45:13;;;;;;;;;;;;;;;16.58;55.72;101345.75;4931341;28;97740;-56
2022/02/10 00:48:01;;;;;;;;;;;;;;;16.58;55.68;101348.47;4922600;28;107818;-57
2022/02/10 00:50:28;;;;;;;;;;;;;;;16.57;55.73;101341.41;4922386;28;98896;-56
2022/02/10 00:53:01;;;;;;;;;;;;;;;16.58;55.73;101340.31;4921314;28;98300;-57
2022/02/10 00:55:29;;;;;;;;;;;;;;;16.58;55.72;101340.31;4917082;28;97867;-57
2022/02/10 00:57:56;;;;;;;;;;;;;;;16.58;55.85;101338.41;4923078;28;98698;-56
2022/02/10 01:13:44;;;;;;;;;;;;;;;16.56;55.71;101326.19;4920444;28;97772;-63
2022/02/10 01:24:37;;;;;;;;;;;;;;;16.56;55.60;101312.59;4921227;28;97779;-56
2022/02/10 01:29:48;;;;;;;;;;;;;;;16.55;55.75;101300.91;4921465;28;98136;-63
2022/02/10 01:32:15;;;;;;;;;;;;;;;16.56;55.79;101298.97;4921992;28;97962;-56
2022/02/10 01:34:50;;;;;;;;;;;;;;;16.55;55.47;101302.81;4937751;28;98024;-63
2022/02/10 01:37:16;;;;;;;;;;;;;;;16.55;55.48;101300.91;4942176;28;97827;-63
2022/02/10 01:39:48;;;;;;;;;;;;;;;16.54;55.56;101301.97;4939257;28;121110;-63
2022/02/10 02:04:18;;;;;;;;;;;;;;;16.54;55.45;101271.22;4919892;28;97973;-62
2022/02/10 02:06:46;;;;;;;;;;;;;;;16.54;55.53;101265.78;4921165;28;98118;-63
2022/02/10 02:09:15;;;;;;;;;;;;;;;16.53;55.77;101264.19;4952483;28;97783;-57
2022/02/10 02:11:44;;;;;;;;;;;;;;;16.54;55.54;101265.78;4920988;28;98774;-56
2022/02/10 02:14:19;;;;;;;;;;;;;;;16.54;55.33;101254.91;4924853;28;98479;-63
2022/02/10 02:17:06;;;;;;;;;;;;;;;16.54;55.36;101254.91;4934489;28;98433;-64
2022/02/10 02:19:32;;;;;;;;;;;;;;;16.54;55.48;101258.44;4922144;28;97997;-56
2022/02/10 02:21:59;;;;;;;;;;;;;;;16.54;55.46;101255.72;4921157;28;98462;-56
2022/02/10 02:24:25;;;;;;;;;;;;;;;16.54;55.32;101250.28;4921276;28;98035;-63
2022/02/10 02:26:51;;;;;;;;;;;;;;;16.54;55.37;101254.91;4920513;28;126766;-57
2022/02/10 02:29:25;;;;;;;;;;;;;;;16.54;55.32;101242.09;4922183;28;99349;-56
2022/02/10 02:31:57;;;;;;;;;;;;;;;16.54;55.53;101250.28;4921326;28;98292;-63
2022/02/10 03:07:10;;;;;;;;;;;;;;;16.55;55.30;101221.97;4919863;28;98304;-56
2022/02/10 03:09:42;;;;;;;;;;;;;;;16.56;55.25;101207.25;4921344;28;97959;-62
2022/02/10 03:12:09;;;;;;;;;;;;;;;16.57;55.32;101216.25;4922360;28;97744;-62
2022/02/10 03:14:43;;;;;;;;;;;;;;;16.56;55.23;101207.25;4920553;28;98317;-63
2022/02/10 03:17:39;;;;;;;;;;;;;;;16.56;55.17;101207.25;4924177;28;98493;-56
2022/02/10 03:20:20;;;;;;;;;;;;;;;16.57;55.24;101199.91;4923926;28;98198;-62
2022/02/10 04:01:56;;;;;;;;;;;;;;;16.56;55.25;101168.34;4921031;28;98076;-56
2022/02/10 04:12:10;;;;;;;;;;;;;;;16.57;55.02;101150.91;4921600;28;98621;-63
2022/02/10 04:14:47;;;;;;;;;;;;;;;16.55;54.97;101143.06;4929279;28;97784;-63
2022/02/10 04:22:44;;;;;;;;;;;;;;;16.57;55.15;101135.41;4917369;28;98416;-56
2022/02/10 04:39:06;;;;;;;;;;;;;;;16.60;55.17;101134.03;4921136;28;97632;-57
2022/02/10 04:53:26;;;;;;;;;;;;;;;16.60;55.02;101118.50;4920668;28;97804;-62
2022/02/10 04:57:32;;;;;;;;;;;;;;;16.60;54.97;101118.50;4942115;28;97921;-56
2022/02/10 05:00:15;;;;;;;;;;;;;;;16.60;54.91;101114.97;4943219;28;97679;-63
2022/02/10 05:03:20;;;;;;;;;;;;;;;16.61;54.94;101106.50;4938832;28;98193;-56
2022/02/10 05:08:52;;;;;;;;;;;;;;;16.60;54.91;101102.16;4919873;28;97963;-63
2022/02/10 05:24:45;;;;;;;;;;;;;;;16.61;54.90;101089.38;4921827;28;98336;-56
2022/02/10 05:32:58;;;;;;;;;;;;;;;16.61;54.92;101081.19;4899734;28;97735;-63
2022/02/10 05:38:32;;;;;;;;;;;;;;;16.60;54.96;101065.97;4917486;28;98625;-62
2022/02/10 05:54:30;;;;;;;;;;;;;;;16.59;54.73;101043.41;4934784;28;98017;-62
2022/02/10 05:57:17;;;;;;;;;;;;;;;16.59;54.82;101040.69;4905666;28;98894;-62
2022/02/10 06:52:03;;;;;;;;;;;;;;;16.62;54.58;101023.78;4901796;28;98387;-56
2022/02/10 06:54:54;;;;;;;;;;;;;;;16.66;54.48;101019.38;4929716;28;98179;-56
2022/02/10 07:03:21;;;;;;;;;;;;;;;16.75;54.29;101007.84;4920950;28;98282;-56
2022/02/10 07:08:44;;;;;;;;;;;;;;;16.81;54.24;100993.81;4922184;28;100232;-63
2022/02/10 07:49:30;;;;;;;;;;;;;;;17.66;53.57;100961.84;4861851;28;98371;-62
2022/02/10 07:52:22;;;;;;;;;;;;;;;17.76;53.58;100963.56;4932436;28;98769;-63
2022/02/10 07:55:14;;;;;;;;;;;;;;;17.81;53.29;100960.75;4953797;28;97988;-62
2022/02/10 08:49:52;;;;;;;;;;;;;;;22.59;49.42;100897.22;4907149;28;98044;-63
2022/02/10 09:06:06;;;;;;;;;;;;;;;25.31;47.17;100913.75;4898730;28;98076;-63
2022/02/10 09:19:38;;;;;;;;;;;;;;;27.19;45.89;100893.25;4920509;28;97791;-63
2022/02/10 09:23:36;;;;;;;;;;;;;;;27.54;45.66;100885.53;4922848;28;97946;-63
2022/02/10 09:26:12;;;;;;;;;;;;;;;27.84;45.56;100885.59;4933697;28;99081;-63
2022/02/10 09:51:32;;;;;;;;;;;;;;;30.11;43.34;100859.53;4910270;28;98475;-58
2022/02/10 09:55:46;;;;;;;;;;;;;;;30.39;43.45;100850.53;4919210;28;97790;-57
2022/02/10 09:58:29;;;;;;;;;;;;;;;30.53;43.09;100844.97;4922272;28;98577;-64
2022/02/10 10:01:26;;;;;;;;;;;;;;;30.57;43.11;100845.78;4916670;28;98639;-64
2022/02/10 10:03:55;;;;;;;;;;;;;;;30.54;42.92;100834.66;4902096;28;97783;-64
2022/02/10 10:06:39;;;;;;;;;;;;;;;30.45;42.99;100839.81;4902477;28;98358;-64
2022/02/10 10:14:40;;;;;;;;;;;;;;;30.07;42.87;100828.97;4919192;28;97993;-57
2022/02/10 10:19:52;;;;;;;;;;;;;;;29.72;42.67;100834.38;4920485;28;98336;-57
2022/02/10 10:23:07;;;;;;;;;;;;;;;29.48;42.94;100828.25;4921264;28;98422;-63
2022/02/10 10:50:51;;;;;;;;;;;;;;;28.16;41.82;100784.69;4902731;28;98922;-63
2022/02/10 10:59:09;;;;;;;;;;;;;;;28.09;41.86;100769.56;4918631;28;97979;-57
2022/02/10 11:38:17;;;;;;;;;;;;;;;28.41;40.73;100701.81;4842247;28;99263;-62
2022/02/10 11:46:45;;;;;;;;;;;;;;;27.61;41.24;100693.84;4897409;28;98167;-57
2022/02/10 14:17:09;;;;;;;;;;;;;;;20.58;45.89;100715.91;4882217;28;111918;-63
2022/02/10 14:22:10;;;;;;;;;;;;;;;20.52;46.11;100719.19;4901588;28;98186;-63
2022/02/10 14:27:20;;;;;;;;;;;;;;;20.42;46.03;100728.50;4894830;28;98250;-57
2022/02/10 14:29:46;;;;;;;;;;;;;;;20.37;46.08;100725.97;4917307;28;97868;-63
2022/02/10 14:32:15;;;;;;;;;;;;;;;20.32;46.03;100739.81;4920780;28;98057;-63
2022/02/10 14:34:41;;;;;;;;;;;;;;;20.24;46.32;100752.41;4919584;28;98465;-63
2022/02/10 14:37:21;;;;;;;;;;;;;;;20.19;46.31;100749.81;4919060;28;97716;-56
2022/02/10 14:43:05;;;;;;;;;;;;;;;20.06;46.31;100746.13;4924982;28;98027;-63
2022/02/10 15:29:08;;;;;;;;;;;;;;;19.33;47.01;100783.41;4926027;28;98239;-57
2022/02/10 15:47:15;;;;;;;;;;;;;;;19.11;47.45;100789.78;4919046;28;98165;-63
2022/02/10 15:51:52;;;;;;;;;;;;;;;19.04;47.86;100787.50;4920771;28;98479;-63
2022/02/10 16:18:12;;;;;;;;;;;;;;;18.78;48.13;100835.75;4936936;28;99565;-56
2022/02/10 16:20:39;;;;;;;;;;;;;;;18.75;47.98;100845.38;4941794;28;97798;-57
2022/02/10 16:23:07;;;;;;;;;;;;;;;18.74;48.05;100845.69;4938537;28;119722;-56
2022/02/10 16:25:36;;;;;;;;;;;;;;;18.72;48.32;100854.19;4940539;28;98984;-63
2022/02/10 16:28:19;;;;;;;;;;;;;;;18.70;48.26;100856.41;4941777;28;97902;-62
2022/02/10 16:30:45;;;;;;;;;;;;;;;18.69;48.29;100860.25;4941984;28;98162;-63
2022/02/10 16:33:11;;;;;;;;;;;;;;;18.68;48.31;100858.63;4939198;28;129632;-56
2022/02/10 16:35:39;;;;;;;;;;;;;;;18.67;48.09;100869.84;4940417;28;98074;-63
2022/02/10 16:38:05;;;;;;;;;;;;;;;18.64;48.38;100863.91;4940470;28;98225;-56
2022/02/10 16:40:30;;;;;;;;;;;;;;;18.62;48.45;100865.31;4939408;28;118624;-56
2022/02/10 16:42:56;;;;;;;;;;;;;;;18.61;48.42;100872.72;4940326;28;98864;-63
2022/02/10 16:45:23;;;;;;;;;;;;;;;18.58;48.52;100869.81;4940267;28;99363;-56
2022/02/10 16:47:50;;;;;;;;;;;;;;;18.57;48.45;100870.94;4940072;28;118584;-56
2022/02/10 16:50:16;;;;;;;;;;;;;;;18.54;48.64;100864.16;4936141;28;98101;-63
2022/02/10 16:52:49;;;;;;;;;;;;;;;18.51;48.60;100864.78;4921183;28;99266;-56
2022/02/10 16:55:39;;;;;;;;;;;;;;;18.50;48.63;100862.38;4919795;28;98528;-61
2022/02/10 16:58:23;;;;;;;;;;;;;;;18.48;48.59;100868.16;4921176;28;98229;-63
2022/02/10 17:03:45;;;;;;;;;;;;;;;18.44;48.76;100877.25;4918150;28;118121;-63
2022/02/10 17:17:23;;;;;;;;;;;;;;;18.33;49.01;100879.41;4920391;28;98300;-63
2022/02/10 17:27:41;;;;;;;;;;;;;;;18.25;49.19;100896.53;4931457;28;98235;-57
2022/02/10 17:30:48;;;;;;;;;;;;;;;18.24;49.31;100903.91;4939420;28;98569;-56
2022/02/10 17:36:02;;;;;;;;;;;;;;;18.21;49.34;100918.16;4938110;28;97893;-56
2022/02/10 17:46:38;;;;;;;;;;;;;;;18.14;49.55;100910.41;4938527;28;98268;-56
2022/02/10 17:54:23;;;;;;;;;;;;;;;18.11;49.76;100924.63;4934974;28;97639;-62
2022/02/10 17:56:49;;;;;;;;;;;;;;;18.10;49.83;100927.69;4920280;28;98444;-63
2022/02/10 17:59:15;;;;;;;;;;;;;;;18.10;49.84;100925.75;4918308;28;127538;-63
2022/02/10 18:01:45;;;;;;;;;;;;;;;18.08;49.98;100925.28;4920085;28;98574;-57
2022/02/10 18:04:11;;;;;;;;;;;;;;;18.07;49.89;100939.19;4920147;28;97860;-56
2022/02/10 18:06:43;;;;;;;;;;;;;;;18.05;49.90;100950.44;4920082;28;99365;-63
2022/02/10 18:17:41;;;;;;;;;;;;;;;18.00;50.11;100986.00;4919621;28;98100;-63
2022/02/10 18:20:08;;;;;;;;;;;;;;;17.97;49.95;100983.88;4919323;28;99036;-63
2022/02/10 18:23:12;;;;;;;;;;;;;;;17.95;50.18;100986.09;4928110;28;97997;-56
2022/02/10 18:26:15;;;;;;;;;;;;;;;17.94;50.06;100981.75;4937254;28;98047;-63
2022/02/10 18:33:26;;;;;;;;;;;;;;;17.90;50.02;100988.94;4935893;28;116982;-56
2022/02/10 18:33:56;;;;;;;;;;;;;;;17.86;50.24;100988.72;4964330;28;98691;-62
2022/02/10 19:08:57;;;;;;;;;;;;;;;17.70;50.45;100990.13;4940268;28;97796;-58
2022/02/10 19:11:23;;;;;;;;;;;;;;;17.67;50.34;100977.88;4939883;28;98594;-56
2022/02/10 19:13:53;;;;;;;;;;;;;;;17.67;50.40;100979.81;4940021;28;97896;-63
2022/02/10 19:16:19;;;;;;;;;;;;;;;17.66;50.45;100978.19;4923831;28;98045;-56
2022/02/10 19:18:45;;;;;;;;;;;;;;;17.64;50.56;100975.78;4936271;28;118349;-63
2022/02/10 19:21:11;;;;;;;;;;;;;;;17.63;50.65;100976.06;4941222;28;128040;-61
2022/02/10 19:23:36;;;;;;;;;;;;;;;17.63;50.51;100978.78;4937743;28;97877;-63
2022/02/10 19:26:02;;;;;;;;;;;;;;;17.61;50.53;100970.94;4921811;28;128129;-62
2022/02/10 19:28:28;;;;;;;;;;;;;;;17.61;50.57;100978.31;4922521;28;103846;-63
2022/02/10 19:30:55;;;;;;;;;;;;;;;17.59;50.55;100978.59;4920783;28;128993;-57
2022/02/10 19:33:21;;;;;;;;;;;;;;;17.58;50.56;100978.91;4930872;28;98525;-62
2022/02/10 19:35:51;;;;;;;;;;;;;;;17.56;50.58;100983.84;4903144;28;98375;-56
2022/02/10 19:38:20;;;;;;;;;;;;;;;17.56;50.58;100994.72;4909936;28;98428;-63
2022/02/10 19:40:50;;;;;;;;;;;;;;;17.53;50.56;100985.25;4921203;28;98693;-57
2022/02/10 19:43:18;;;;;;;;;;;;;;;17.53;50.65;100984.47;4916096;28;98422;-56
2022/02/10 19:45:44;;;;;;;;;;;;;;;17.52;50.65;100978.16;4910958;28;98700;-56
2022/02/10 19:48:10;;;;;;;;;;;;;;;17.51;50.60;100984.75;4917095;28;98593;-56
2022/02/10 19:50:36;;;;;;;;;;;;;;;17.50;50.78;100985.84;4902052;28;123881;-56
2022/02/10 19:53:06;;;;;;;;;;;;;;;17.50;50.66;100985.06;4906019;28;98423;-63
2022/02/10 19:55:35;;;;;;;;;;;;;;;17.48;50.78;100992.72;4888192;28;98046;-56
2022/02/10 19:58:07;;;;;;;;;;;;;;;17.47;50.75;101000.06;4902736;28;98509;-62
2022/02/10 20:00:38;;;;;;;;;;;;;;;17.47;50.70;100993.81;4902558;28;98436;-63
2022/02/10 20:03:12;;;;;;;;;;;;;;;17.46;50.86;100992.22;4901762;28;98113;-56
2022/02/10 20:05:44;;;;;;;;;;;;;;;17.44;50.92;100997.94;4902668;28;97763;-57
2022/02/10 20:08:10;;;;;;;;;;;;;;;17.44;50.85;100997.94;4904086;28;98168;-63
2022/02/10 20:10:36;;;;;;;;;;;;;;;17.43;50.78;101005.31;4922613;28;129870;-63
2022/02/10 20:13:02;;;;;;;;;;;;;;;17.43;50.87;101005.31;4916876;28;126727;-63
2022/02/10 20:15:33;;;;;;;;;;;;;;;17.42;50.74;101000.19;4914728;28;125548;-56
2022/02/10 20:18:04;;;;;;;;;;;;;;;17.41;50.80;101002.09;4923480;28;98151;-63
2022/02/10 20:20:30;;;;;;;;;;;;;;;17.41;50.89;101007.56;4923157;28;98198;-59
2022/02/10 20:22:56;;;;;;;;;;;;;;;17.42;50.87;101011.06;4920320;28;98320;-63
2022/02/10 20:25:22;;;;;;;;;;;;;;;17.39;50.82;101009.75;4922758;28;97774;-56
2022/02/10 20:27:48;;;;;;;;;;;;;;;17.39;51.01;101006.22;4923308;28;97850;-56
2022/02/10 20:30:14;;;;;;;;;;;;;;;17.38;50.81;101008.13;4921859;28;98997;-56
2022/02/10 20:32:40;;;;;;;;;;;;;;;17.38;51.04;101007.34;4920764;28;128293;-55
2022/02/10 20:35:09;;;;;;;;;;;;;;;17.38;51.05;101001.88;4937141;28;98462;-63
2022/02/10 20:37:35;;;;;;;;;;;;;;;17.37;50.99;100998.34;4942826;28;97922;-62
2022/02/10 20:40:03;;;;;;;;;;;;;;;17.35;50.92;100995.13;4940946;28;99248;-56
2022/02/10 20:42:31;;;;;;;;;;;;;;;17.35;50.83;100986.94;4903477;28;99514;-63
2022/02/10 20:44:56;;;;;;;;;;;;;;;17.35;51.08;100986.94;4922905;28;98688;-63
2022/02/10 20:47:25;;;;;;;;;;;;;;;17.35;51.13;100995.13;4922015;28;118338;-62
2022/02/10 20:49:51;;;;;;;;;;;;;;;17.34;51.12;100988.06;4923196;28;98797;-63
2022/02/10 20:52:17;;;;;;;;;;;;;;;17.34;51.07;100996.22;4922955;28;98900;-56
2022/02/10 20:54:43;;;;;;;;;;;;;;;17.34;51.04;100992.69;4921376;28;126827;-56
2022/02/10 20:57:09;;;;;;;;;;;;;;;17.33;51.20;100988.34;4923589;28;97963;-55
2022/02/10 20:59:38;;;;;;;;;;;;;;;17.32;50.99;100982.09;4922558;28;100983;-63
2022/02/10 21:02:14;;;;;;;;;;;;;;;17.32;50.99;100989.44;4922369;28;99172;-55
2022/02/10 21:04:48;;;;;;;;;;;;;;;17.31;51.13;100985.13;4922050;28;98299;-62
2022/02/10 21:07:21;;;;;;;;;;;;;;;17.29;51.17;100981.88;4923194;28;97850;-56
2022/02/10 21:12:13;;;;;;;;;;;;;;;17.28;51.26;100978.34;4940849;28;117290;-62
2022/02/10 21:14:40;;;;;;;;;;;;;;;17.29;51.24;100982.72;4941722;28;97829;-56
2022/02/10 21:17:09;;;;;;;;;;;;;;;17.29;51.26;100973.69;4942150;28;98139;-56
2022/02/10 21:19:36;;;;;;;;;;;;;;;17.28;51.29;100972.91;4941715;28;98676;-61
2022/02/10 21:22:06;;;;;;;;;;;;;;;17.27;51.19;100976.72;4941969;28;98648;-56
2022/02/10 21:24:33;;;;;;;;;;;;;;;17.28;51.16;100978.34;4941411;28;97922;-56
2022/02/10 21:29:38;;;;;;;;;;;;;;;17.27;51.25;100974.00;4941437;28;98480;-56
2022/02/10 21:32:05;;;;;;;;;;;;;;;17.27;51.35;100970.47;4938776;28;98253;-56
2022/02/10 21:34:35;;;;;;;;;;;;;;;17.26;51.42;100966.16;4923559;28;97973;-62
2022/02/10 21:37:06;;;;;;;;;;;;;;;17.26;51.17;100964.22;4923844;28;97984;-62
2022/02/10 21:39:48;;;;;;;;;;;;;;;17.26;51.36;100964.22;4937437;28;97900;-63
2022/02/10 21:43:15;;;;;;;;;;;;;;;17.25;51.33;100954.44;4941985;28;98277;-62
2022/02/10 21:53:54;;;;;;;;;;;;;;;17.22;51.41;100949.59;4938578;28;98168;-62
2022/02/10 21:56:26;;;;;;;;;;;;;;;17.23;51.38;100959.38;4922983;28;98571;-56
2022/02/10 22:04:48;;;;;;;;;;;;;;;17.24;51.42;100965.63;4916241;28;98271;-63
2022/02/10 22:18:11;;;;;;;;;;;;;;;17.21;51.60;100952.59;4921533;28;97844;-55
2022/02/10 22:20:30;;;;;;;;;;;;;;;17.21;51.55;100958.03;4921380;28;98080;-63
2022/02/10 22:23:05;;;;;;;;;;;;;;;17.22;51.63;100959.69;4921332;28;98432;-62
2022/02/10 22:25:31;;;;;;;;;;;;;;;17.21;51.54;100964.31;4921225;28;99447;-63
2022/02/10 22:28:07;;;;;;;;;;;;;;;17.20;51.51;100968.13;4921190;28;98295;-63
2022/02/10 22:30:46;;;;;;;;;;;;;;;17.20;51.57;100970.88;4922189;28;98009;-62
2022/02/10 22:33:28;;;;;;;;;;;;;;;17.19;51.61;100969.25;4921669;28;98805;-56
2022/02/10 22:35:54;;;;;;;;;;;;;;;17.19;51.54;100971.97;4939931;28;99529;-56
2022/02/10 22:38:22;;;;;;;;;;;;;;;17.18;51.63;100967.66;4940464;28;98588;-62
2022/02/10 22:41:04;;;;;;;;;;;;;;;17.16;51.75;100978.00;4941058;28;97791;-56
2022/02/10 22:43:30;;;;;;;;;;;;;;;17.15;51.63;100981.84;4940194;28;98833;-62
2022/02/10 22:45:56;;;;;;;;;;;;;;;17.14;51.41;100975.59;4941231;28;98297;-57
2022/02/10 22:48:22;;;;;;;;;;;;;;;17.14;51.59;100972.88;4939775;28;121241;-56
2022/02/10 22:50:49;;;;;;;;;;;;;;;17.14;51.68;100977.53;4941218;28;97883;-55
2022/02/10 22:53:15;;;;;;;;;;;;;;;17.13;51.77;100987.63;4940051;28;99035;-63
2022/02/10 22:55:41;;;;;;;;;;;;;;;17.12;51.60;100988.69;4940881;28;99007;-62
2022/02/10 22:58:07;;;;;;;;;;;;;;;17.12;51.69;100985.16;4935101;28;127521;-63
2022/02/10 23:00:34;;;;;;;;;;;;;;;17.12;51.82;100990.63;4936331;28;98203;-55
2022/02/10 23:03:00;;;;;;;;;;;;;;;17.10;51.79;100992.84;4936705;28;118361;-63
2022/02/10 23:05:26;;;;;;;;;;;;;;;17.10;51.65;100996.38;4939707;28;108485;-56
2022/02/10 23:07:56;;;;;;;;;;;;;;;17.10;51.65;100988.19;4939796;28;127905;-56
2022/02/10 23:13:09;;;;;;;;;;;;;;;17.07;51.79;100985.25;4936002;28;98698;-63
2022/02/10 23:15:38;;;;;;;;;;;;;;;17.07;51.67;100985.25;4939573;28;108379;-56
2022/02/10 23:18:11;;;;;;;;;;;;;;;17.06;51.69;100983.66;4939641;28;98116;-56
2022/02/10 23:20:37;;;;;;;;;;;;;;;17.05;51.87;100985.53;4941305;28;97762;-62
2022/02/10 23:23:05;;;;;;;;;;;;;;;17.05;51.93;100992.91;4940637;28;98617;-63
2022/02/10 23:25:32;;;;;;;;;;;;;;;17.04;51.72;100996.75;4940651;28;98516;-55
2022/02/10 23:27:58;;;;;;;;;;;;;;;17.04;51.63;100996.75;4939765;28;98377;-62
2022/02/10 23:30:24;;;;;;;;;;;;;;;17.03;51.67;100987.78;4939886;28;109434;-55
2022/02/10 23:32:53;;;;;;;;;;;;;;;17.02;51.81;100998.97;4939524;28;128723;-62
2022/02/10 23:36:32;;;;;;;;;;;;;;;17.01;51.63;100989.16;4926774;28;98791;-63
2022/02/10 23:38:05;;;;;;;;;;;;;;;16.99;51.98;100991.41;4915887;28;98161;-62
2022/02/10 23:40:43;;;;;;;;;;;;;;;16.99;51.95;100989.47;4935883;28;98235;-56
2022/02/10 23:43:09;;;;;;;;;;;;;;;16.99;51.83;100989.47;4943595;28;98542;-62
2022/02/10 23:45:40;;;;;;;;;;;;;;;16.98;51.84;100982.41;4942850;28;112379;-62
2022/02/10 23:48:06;;;;;;;;;;;;;;;16.97;51.74;100986.22;4938447;28;98129;-63
2022/02/10 23:50:34;;;;;;;;;;;;;;;16.97;51.86;100986.22;4923920;28;116081;-62
2022/02/10 23:53:00;;;;;;;;;;;;;;;16.96;51.76;100983.81;4923662;28;98830;-62
2022/02/10 23:55:32;;;;;;;;;;;;;;;16.95;51.70;100983.00;4936361;28;98240;-56
2022/02/10 23:58:11;;;;;;;;;;;;;;;16.93;51.78;100980.56;4942454;28;98110;-63
